Time;durP1;ratioP1;P1;durP2;ratioP2;P2;SDS_P1;SDS_P2;PMS_P1;PMS_P2;Temp;Humidity;BMP_temperature;BMP_pressure;BME280_temperature;BME280_humidity;BME280_pressure;Samples;Min_cycle;Max_cycle;Signal;HPM_P1;HPM_P2
2022/07/26 00:00:01;;;;;;;;;;;;;;;;;;21177257;28;19919;-53
2022/07/26 00:10:03;;;;;;;;;;;;;;;;;;21176482;28;19989;-54
2022/07/26 00:20:04;;;;;;;;;;;;;;;;;;21157815;28;19919;-56
2022/07/26 00:30:06;;;;;;;;;;;;;;;;;;21174587;28;19920;-54
2022/07/26 00:40:08;;;;;;;;;;;;;;;;;;21183087;28;19954;-56
2022/07/26 00:50:10;;;;;;;;;;;;;;;;;;21179467;28;19924;-59
2022/07/26 01:00:12;;;;;;;;;;;;;;;;;;21172252;28;20407;-58
2022/07/26 01:10:14;;;;;;;;;;;;;;;;;;21172100;28;19963;-54
2022/07/26 01:20:15;;;;;;;;;;;;;;;;;;21172756;28;20331;-55
2022/07/26 01:30:20;;;;;;;;;;;;;;;;;;21168966;28;19924;-54
2022/07/26 01:40:25;;;;;;;;;;;;;;;;;;21167366;28;19927;-55
2022/07/26 01:50:27;;;;;;;;;;;;;;;;;;21166695;28;20022;-57
2022/07/26 02:00:30;;;;;;;;;;;;;;;;;;21165959;28;19927;-56
2022/07/26 02:10:59;;;;;;;;;;;;;;;;;;21164670;28;20052;-63
2022/07/26 02:21:06;;;;;;;;;;;;;;;;;;21164375;28;20393;-56
2022/07/26 02:31:11;;;;;;;;;;;;;;;;;;21163704;28;19919;-54
2022/07/26 02:41:16;;;;;;;;;;;;;;;;;;21164129;28;19973;-58
2022/07/26 02:51:20;;;;;;;;;;;;;;;;;;21166637;28;19919;-60
2022/07/26 03:01:23;;;;;;;;;;;;;;;;;;21180931;28;19959;-70
2022/07/26 03:11:26;;;;;;;;;;;;;;;;;;21178562;28;19920;-53
2022/07/26 03:21:28;;;;;;;;;;;;;;;;;;21178703;28;20291;-54
2022/07/26 03:31:31;;;;;;;;;;;;;;;;;;21178687;28;19927;-58
2022/07/26 03:41:33;;;;;;;;;;;;;;;;;;21177732;28;19965;-54
2022/07/26 03:51:35;;;;;;;;;;;;;;;;;;21180676;28;20431;-63
2022/07/26 04:01:40;;;;;;;;;;;;;;;;;;21158759;28;19920;-56
2022/07/26 04:11:43;;;;;;;;;;;;;;;;;;21157112;28;19920;-67
2022/07/26 04:22:02;;;;;;;;;;;;;;;;;;21174812;28;19908;-60
2022/07/26 04:32:04;;;;;;;;;;;;;;;;;;21174789;28;20000;-66
2022/07/26 04:42:06;;;;;;;;;;;;;;;;;;21172835;28;20290;-62
2022/07/26 04:52:08;;;;;;;;;;;;;;;;;;21172046;28;19942;-62
2022/07/26 05:02:09;;;;;;;;;;;;;;;;;;21172639;28;19924;-57
2022/07/26 05:12:11;;;;;;;;;;;;;;;;;;21169677;28;19998;-68
2022/07/26 05:22:13;;;;;;;;;;;;;;;;;;21169471;28;20287;-59
2022/07/26 05:32:15;;;;;;;;;;;;;;;;;;21169899;28;19941;-62
2022/07/26 05:42:17;;;;;;;;;;;;;;;;;;21166839;28;19963;-56
2022/07/26 05:52:18;;;;;;;;;;;;;;;;;;21166311;28;19979;-57
2022/07/26 06:02:20;;;;;;;;;;;;;;;;;;21165744;28;20406;-53
2022/07/26 06:12:21;;;;;;;;;;;;;;;;;;21164548;28;19949;-59
2022/07/26 06:22:23;;;;;;;;;;;;;;;;;;21168781;28;19926;-53
2022/07/26 06:32:25;;;;;;;;;;;;;;;;;;21163699;28;19920;-57
2022/07/26 06:42:27;;;;;;;;;;;;;;;;;;21147032;28;19926;-55
2022/07/26 06:52:28;;;;;;;;;;;;;;;;;;21163184;28;19945;-54
2022/07/26 07:02:30;;;;;;;;;;;;;;;;;;21145161;28;19927;-54
2022/07/26 07:12:32;;;;;;;;;;;;;;;;;;21163220;28;19919;-65
2022/07/26 07:22:33;;;;;;;;;;;;;;;;;;21163913;28;20424;-56
2022/07/26 07:32:35;;;;;;;;;;;;;;;;;;21163734;28;20285;-64
2022/07/26 07:42:38;;;;;;;;;;;;;;;;;;21175006;28;20371;-59
2022/07/26 07:52:39;;;;;;;;;;;;;;;;;;21185374;28;20383;-55
2022/07/26 08:02:45;;;;;;;;;;;;;;;;;;21191737;28;19919;-54
2022/07/26 08:12:46;;;;;;;;;;;;;;;;;;21186475;28;19927;-58
2022/07/26 08:22:48;;;;;;;;;;;;;;;;;;21211894;28;19955;-61
2022/07/26 08:32:49;;;;;;;;;;;;;;;;;;21199139;28;20010;-71
2022/07/26 08:42:51;;;;;;;;;;;;;;;;;;21199654;28;19963;-62
2022/07/26 08:52:52;;;;;;;;;;;;;;;;;;21195559;28;20014;-56
2022/07/26 09:02:54;;;;;;;;;;;;;;;;;;21189967;28;19963;-54
2022/07/26 09:12:56;;;;;;;;;;;;;;;;;;21169575;28;19941;-62
2022/07/26 09:22:57;;;;;;;;;;;;;;;;;;21171400;28;20420;-76
2022/07/26 09:33:00;;;;;;;;;;;;;;;;;;21169767;28;19971;-54
2022/07/26 09:43:02;;;;;;;;;;;;;;;;;;21174464;28;19926;-77
2022/07/26 09:53:06;;;;;;;;;;;;;;;;;;21171949;28;19919;-54
2022/07/26 10:03:08;;;;;;;;;;;;;;;;;;21158867;28;20014;-68
2022/07/26 10:13:11;;;;;;;;;;;;;;;;;;21166444;28;20458;-58
2022/07/26 10:23:13;;;;;;;;;;;;;;;;;;21167046;28;19923;-65
2022/07/26 10:33:16;;;;;;;;;;;;;;;;;;21166239;28;20434;-53
2022/07/26 10:43:18;;;;;;;;;;;;;;;;;;21166022;28;20064;-73
2022/07/26 10:53:20;;;;;;;;;;;;;;;;;;21169222;28;19923;-69
2022/07/26 11:03:22;;;;;;;;;;;;;;;;;;21166933;28;20287;-58
2022/07/26 11:13:24;;;;;;;;;;;;;;;;;;21169246;28;20383;-67
2022/07/26 11:23:26;;;;;;;;;;;;;;;;;;21182296;28;20506;-56
2022/07/26 11:33:28;;;;;;;;;;;;;;;;;;21185572;28;19919;-56
2022/07/26 11:43:30;;;;;;;;;;;;;;;;;;21181250;28;20010;-69
2022/07/26 11:53:32;;;;;;;;;;;;;;;;;;21178174;28;19934;-61
2022/07/26 12:03:34;;;;;;;;;;;;;;;;;;21176174;28;19957;-63
2022/07/26 12:13:36;;;;;;;;;;;;;;;;;;21174950;28;19930;-68
2022/07/26 12:23:38;;;;;;;;;;;;;;;;;;21182919;28;19967;-74
2022/07/26 12:33:41;;;;;;;;;;;;;;;;;;21157838;28;19930;-70
2022/07/26 12:43:42;;;;;;;;;;;;;;;;;;21174756;28;19945;-64
2022/07/26 12:53:44;;;;;;;;;;;;;;;;;;21174925;28;19919;-61
2022/07/26 13:03:46;;;;;;;;;;;;;;;;;;21172987;28;20292;-64
2022/07/26 13:13:48;;;;;;;;;;;;;;;;;;21151033;28;19931;-60
2022/07/26 13:23:50;;;;;;;;;;;;;;;;;;21168952;28;20293;-61
2022/07/26 13:33:52;;;;;;;;;;;;;;;;;;21168894;28;20228;-58
2022/07/26 13:43:54;;;;;;;;;;;;;;;;;;21168340;28;20256;-55
2022/07/26 13:53:57;;;;;;;;;;;;;;;;;;21167347;28;19919;-56
2022/07/26 14:03:59;;;;;;;;;;;;;;;;;;21166578;28;20282;-54
2022/07/26 14:14:00;;;;;;;;;;;;;;;;;;21164682;28;19938;-53
2022/07/26 14:24:02;;;;;;;;;;;;;;;;;;21164893;28;20383;-53
2022/07/26 14:34:04;;;;;;;;;;;;;;;;;;21164212;28;19926;-56
2022/07/26 14:44:06;;;;;;;;;;;;;;;;;;21165264;28;20006;-60
2022/07/26 14:54:08;;;;;;;;;;;;;;;;;;21163501;28;20371;-58
2022/07/26 15:04:10;;;;;;;;;;;;;;;;;;21166224;28;19930;-71
2022/07/26 15:14:12;;;;;;;;;;;;;;;;;;21149166;28;19934;-66
2022/07/26 15:24:14;;;;;;;;;;;;;;;;;;21181546;28;19919;-65
2022/07/26 15:34:16;;;;;;;;;;;;;;;;;;21163105;28;20006;-59
2022/07/26 15:44:17;;;;;;;;;;;;;;;;;;21162496;28;19919;-74
2022/07/26 15:54:19;;;;;;;;;;;;;;;;;;21161546;28;19970;-57
2022/07/26 16:04:21;;;;;;;;;;;;;;;;;;21174250;28;19928;-54
2022/07/26 16:14:23;;;;;;;;;;;;;;;;;;21175728;28;19959;-63
2022/07/26 16:24:26;;;;;;;;;;;;;;;;;;21174877;28;20360;-63
2022/07/26 16:34:28;;;;;;;;;;;;;;;;;;21174991;28;19920;-55
2022/07/26 16:44:30;;;;;;;;;;;;;;;;;;21173984;28;20010;-54
2022/07/26 16:54:32;;;;;;;;;;;;;;;;;;21173009;28;19919;-56
2022/07/26 17:04:35;;;;;;;;;;;;;;;;;;21176769;28;19968;-56
2022/07/26 17:14:37;;;;;;;;;;;;;;;;;;21174426;28;19920;-56
2022/07/26 17:24:39;;;;;;;;;;;;;;;;;;21169730;28;19959;-60
2022/07/26 17:34:41;;;;;;;;;;;;;;;;;;21168686;28;20355;-57
2022/07/26 17:44:43;;;;;;;;;;;;;;;;;;21167837;28;19919;-54
2022/07/26 17:54:46;;;;;;;;;;;;;;;;;;21166621;28;19931;-55
2022/07/26 18:04:48;;;;;;;;;;;;;;;;;;21166451;28;19930;-53
2022/07/26 18:14:50;;;;;;;;;;;;;;;;;;21165096;28;20375;-64
2022/07/26 18:24:52;;;;;;;;;;;;;;;;;;21149206;28;20241;-54
2022/07/26 18:34:54;;;;;;;;;;;;;;;;;;21167885;28;19931;-74
2022/07/26 18:44:58;;;;;;;;;;;;;;;;;;21178148;28;19920;-73
2022/07/26 18:54:59;;;;;;;;;;;;;;;;;;21194169;28;19971;-73
2022/07/26 19:05:01;;;;;;;;;;;;;;;;;;21214502;28;19923;-57
2022/07/26 19:15:03;;;;;;;;;;;;;;;;;;21195465;28;19920;-62
2022/07/26 19:25:07;;;;;;;;;;;;;;;;;;21163987;28;19931;-66
2022/07/26 19:35:09;;;;;;;;;;;;;;;;;;21170008;28;19927;-63
2022/07/26 19:45:11;;;;;;;;;;;;;;;;;;21180428;28;19924;-57
2022/07/26 19:55:13;;;;;;;;;;;;;;;;;;21177710;28;19924;-55
2022/07/26 20:05:16;;;;;;;;;;;;;;;;;;21177241;28;19926;-55
2022/07/26 20:15:18;;;;;;;;;;;;;;;;;;21175699;28;19920;-68
2022/07/26 20:25:21;;;;;;;;;;;;;;;;;;21175862;28;19938;-55
2022/07/26 20:35:22;;;;;;;;;;;;;;;;;;21175005;28;19920;-59
2022/07/26 20:45:24;;;;;;;;;;;;;;;;;;21172069;28;19919;-58
2022/07/26 20:55:26;;;;;;;;;;;;;;;;;;21171423;28;19923;-62
2022/07/26 21:05:28;;;;;;;;;;;;;;;;;;21170879;28;19970;-63
2022/07/26 21:15:30;;;;;;;;;;;;;;;;;;21170709;28;19920;-61
2022/07/26 21:25:32;;;;;;;;;;;;;;;;;;21170711;28;19955;-54
2022/07/26 21:35:34;;;;;;;;;;;;;;;;;;21170064;28;19919;-63
2022/07/26 21:45:37;;;;;;;;;;;;;;;;;;21170034;28;19920;-60
2022/07/26 21:55:39;;;;;;;;;;;;;;;;;;21150969;28;19919;-59
2022/07/26 22:05:41;;;;;;;;;;;;;;;;;;21167166;28;20002;-59
2022/07/26 22:15:43;;;;;;;;;;;;;;;;;;21165500;28;19927;-57
2022/07/26 22:25:45;;;;;;;;;;;;;;;;;;21165836;28;19926;-56
2022/07/26 22:35:47;;;;;;;;;;;;;;;;;;21167088;28;19920;-56
2022/07/26 22:45:49;;;;;;;;;;;;;;;;;;21166248;28;20291;-55
2022/07/26 22:55:51;;;;;;;;;;;;;;;;;;21169450;28;19924;-56
2022/07/26 23:05:53;;;;;;;;;;;;;;;;;;21166201;28;19949;-54
2022/07/26 23:15:56;;;;;;;;;;;;;;;;;;21179752;28;19923;-56
2022/07/26 23:25:57;;;;;;;;;;;;;;;;;;21180606;28;20390;-55
2022/07/26 23:35:59;;;;;;;;;;;;;;;;;;21178303;28;19985;-56
2022/07/26 23:46:01;;;;;;;;;;;;;;;;;;21178853;28;19984;-57
2022/07/26 23:56:03;;;;;;;;;;;;;;;;;;21176865;28;19919;-58
